sensor_id;sensor_type;location;lat;lon;timestamp;temperature;humidity
49765;DHT22;35657;51.204;-4.130;2023-03-15T00:01:31;7.50;99.90
49765;DHT22;35657;51.204;-4.130;2023-03-15T00:03:57;7.50;99.90
49765;DHT22;35657;51.204;-4.130;2023-03-15T00:06:23;7.50;99.90
49765;DHT22;35657;51.204;-4.130;2023-03-15T00:08:48;7.50;99.90
49765;DHT22;35657;51.204;-4.130;2023-03-15T00:11:17;7.50;99.90
49765;DHT22;35657;51.204;-4.130;2023-03-15T00:13:44;7.50;99.90
49765;DHT22;35657;51.204;-4.130;2023-03-15T00:16:11;7.50;99.90
49765;DHT22;35657;51.204;-4.130;2023-03-15T00:18:43;7.40;99.90
49765;DHT22;35657;51.204;-4.130;2023-03-15T00:21:09;7.40;99.90
49765;DHT22;35657;51.204;-4.130;2023-03-15T00:23:35;7.50;99.90
49765;DHT22;35657;51.204;-4.130;2023-03-15T00:26:01;7.50;99.90
49765;DHT22;35657;51.204;-4.130;2023-03-15T00:28:26;7.50;99.90
49765;DHT22;35657;51.204;-4.130;2023-03-15T00:31:06;7.40;99.90
49765;DHT22;35657;51.204;-4.130;2023-03-15T00:33:34;7.40;99.90
49765;DHT22;35657;51.204;-4.130;2023-03-15T00:36:05;7.50;99.90
49765;DHT22;35657;51.204;-4.130;2023-03-15T00:38:35;7.50;99.90
49765;DHT22;35657;51.204;-4.130;2023-03-15T00:41:11;7.50;99.90
49765;DHT22;35657;51.204;-4.130;2023-03-15T00:43:37;7.50;99.90
49765;DHT22;35657;51.204;-4.130;2023-03-15T00:46:03;7.50;99.90
49765;DHT22;35657;51.204;-4.130;2023-03-15T00:48:29;7.50;99.90
49765;DHT22;35657;51.204;-4.130;2023-03-15T00:53:31;7.50;99.90
49765;DHT22;35657;51.204;-4.130;2023-03-15T00:55:57;7.40;99.90
49765;DHT22;35657;51.204;-4.130;2023-03-15T00:58:23;7.40;99.90
49765;DHT22;35657;51.204;-4.130;2023-03-15T01:00:49;7.30;99.90
49765;DHT22;35657;51.204;-4.130;2023-03-15T01:03:16;7.30;99.90
49765;DHT22;35657;51.204;-4.130;2023-03-15T01:05:41;7.30;99.90
49765;DHT22;35657;51.204;-4.130;2023-03-15T01:08:07;7.30;99.90
49765;DHT22;35657;51.204;-4.130;2023-03-15T01:10:36;7.40;99.90
49765;DHT22;35657;51.204;-4.130;2023-03-15T01:13:01;7.30;99.90
49765;DHT22;35657;51.204;-4.130;2023-03-15T01:15:27;7.40;99.90
49765;DHT22;35657;51.204;-4.130;2023-03-15T01:17:54;7.30;99.90
49765;DHT22;35657;51.204;-4.130;2023-03-15T01:20:20;7.40;99.90
49765;DHT22;35657;51.204;-4.130;2023-03-15T01:22:46;7.30;99.90
49765;DHT22;35657;51.204;-4.130;2023-03-15T01:25:12;7.30;99.90
49765;DHT22;35657;51.204;-4.130;2023-03-15T01:27:37;7.30;99.90
49765;DHT22;35657;51.204;-4.130;2023-03-15T01:30:04;7.30;99.90
49765;DHT22;35657;51.204;-4.130;2023-03-15T01:32:29;7.20;99.90
49765;DHT22;35657;51.204;-4.130;2023-03-15T01:34:56;7.20;99.90
49765;DHT22;35657;51.204;-4.130;2023-03-15T01:37:21;7.10;99.90
49765;DHT22;35657;51.204;-4.130;2023-03-15T01:39:49;7.10;99.90
49765;DHT22;35657;51.204;-4.130;2023-03-15T01:42:15;7.20;99.90
49765;DHT22;35657;51.204;-4.130;2023-03-15T01:44:48;7.20;99.90
49765;DHT22;35657;51.204;-4.130;2023-03-15T01:47:15;7.10;99.90
49765;DHT22;35657;51.204;-4.130;2023-03-15T01:49:43;7.10;99.90
49765;DHT22;35657;51.204;-4.130;2023-03-15T01:52:24;7.20;99.90
49765;DHT22;35657;51.204;-4.130;2023-03-15T01:54:58;7.10;99.90
49765;DHT22;35657;51.204;-4.130;2023-03-15T01:57:44;7.10;99.90
49765;DHT22;35657;51.204;-4.130;2023-03-15T02:00:14;7.10;99.90
49765;DHT22;35657;51.204;-4.130;2023-03-15T02:02:46;7.10;99.90
49765;DHT22;35657;51.204;-4.130;2023-03-15T02:05:18;7.10;99.90
49765;DHT22;35657;51.204;-4.130;2023-03-15T02:07:46;7.10;99.90
49765;DHT22;35657;51.204;-4.130;2023-03-15T02:10:36;7.10;99.90
49765;DHT22;35657;51.204;-4.130;2023-03-15T02:13:03;7.00;99.90
49765;DHT22;35657;51.204;-4.130;2023-03-15T02:15:29;7.00;99.90
49765;DHT22;35657;51.204;-4.130;2023-03-15T02:17:55;7.00;99.90
49765;DHT22;35657;51.204;-4.130;2023-03-15T02:20:42;7.00;99.90
49765;DHT22;35657;51.204;-4.130;2023-03-15T02:23:12;7.00;99.90
49765;DHT22;35657;51.204;-4.130;2023-03-15T02:25:46;7.00;99.90
49765;DHT22;35657;51.204;-4.130;2023-03-15T02:28:15;7.00;99.90
49765;DHT22;35657;51.204;-4.130;2023-03-15T02:30:41;7.00;99.90
49765;DHT22;35657;51.204;-4.130;2023-03-15T02:33:24;7.00;99.90
49765;DHT22;35657;51.204;-4.130;2023-03-15T02:35:52;7.00;99.90
49765;DHT22;35657;51.204;-4.130;2023-03-15T02:38:18;7.10;99.90
49765;DHT22;35657;51.204;-4.130;2023-03-15T02:40:45;7.00;99.90
49765;DHT22;35657;51.204;-4.130;2023-03-15T02:43:22;7.00;99.90
49765;DHT22;35657;51.204;-4.130;2023-03-15T02:45:49;6.90;99.90
49765;DHT22;35657;51.204;-4.130;2023-03-15T02:48:16;6.90;99.90
49765;DHT22;35657;51.204;-4.130;2023-03-15T02:50:42;6.90;99.90
49765;DHT22;35657;51.204;-4.130;2023-03-15T02:53:08;6.90;99.90
49765;DHT22;35657;51.204;-4.130;2023-03-15T02:55:33;6.80;99.90
49765;DHT22;35657;51.204;-4.130;2023-03-15T02:58:00;6.80;99.90
49765;DHT22;35657;51.204;-4.130;2023-03-15T03:00:27;6.80;99.90
49765;DHT22;35657;51.204;-4.130;2023-03-15T03:02:53;6.70;99.90
49765;DHT22;35657;51.204;-4.130;2023-03-15T03:05:19;6.70;99.90
49765;DHT22;35657;51.204;-4.130;2023-03-15T03:07:46;6.60;99.90
49765;DHT22;35657;51.204;-4.130;2023-03-15T03:10:14;6.50;99.90
49765;DHT22;35657;51.204;-4.130;2023-03-15T03:12:40;6.50;99.90
49765;DHT22;35657;51.204;-4.130;2023-03-15T03:15:07;6.50;99.90
49765;DHT22;35657;51.204;-4.130;2023-03-15T03:17:33;6.50;99.90
49765;DHT22;35657;51.204;-4.130;2023-03-15T03:20:04;6.50;99.90
49765;DHT22;35657;51.204;-4.130;2023-03-15T03:22:33;6.40;99.90
49765;DHT22;35657;51.204;-4.130;2023-03-15T03:24:58;6.40;99.90
49765;DHT22;35657;51.204;-4.130;2023-03-15T03:27:24;6.40;99.90
49765;DHT22;35657;51.204;-4.130;2023-03-15T03:29:50;6.50;99.90
49765;DHT22;35657;51.204;-4.130;2023-03-15T03:32:16;6.40;99.90
49765;DHT22;35657;51.204;-4.130;2023-03-15T03:34:41;6.40;99.90
49765;DHT22;35657;51.204;-4.130;2023-03-15T03:37:17;6.40;99.90
49765;DHT22;35657;51.204;-4.130;2023-03-15T03:39:43;6.30;99.90
49765;DHT22;35657;51.204;-4.130;2023-03-15T03:42:09;6.30;99.90
49765;DHT22;35657;51.204;-4.130;2023-03-15T03:44:35;6.30;99.90
49765;DHT22;35657;51.204;-4.130;2023-03-15T03:47:01;6.20;99.90
49765;DHT22;35657;51.204;-4.130;2023-03-15T03:49:26;6.10;99.90
49765;DHT22;35657;51.204;-4.130;2023-03-15T03:51:52;6.20;99.90
49765;DHT22;35657;51.204;-4.130;2023-03-15T03:54:18;6.20;99.90
49765;DHT22;35657;51.204;-4.130;2023-03-15T03:56:46;6.20;99.90
49765;DHT22;35657;51.204;-4.130;2023-03-15T03:59:12;6.20;99.90
49765;DHT22;35657;51.204;-4.130;2023-03-15T04:01:38;6.20;99.90
49765;DHT22;35657;51.204;-4.130;2023-03-15T04:04:04;6.20;99.90
49765;DHT22;35657;51.204;-4.130;2023-03-15T04:06:29;6.20;99.90
49765;DHT22;35657;51.204;-4.130;2023-03-15T04:08:55;6.20;99.90
49765;DHT22;35657;51.204;-4.130;2023-03-15T04:11:21;6.20;99.90
49765;DHT22;35657;51.204;-4.130;2023-03-15T04:13:51;6.20;99.90
49765;DHT22;35657;51.204;-4.130;2023-03-15T04:16:18;6.30;99.90
49765;DHT22;35657;51.204;-4.130;2023-03-15T04:18:44;6.30;99.90
49765;DHT22;35657;51.204;-4.130;2023-03-15T04:21:09;6.30;99.90
49765;DHT22;35657;51.204;-4.130;2023-03-15T04:23:37;6.20;99.90
49765;DHT22;35657;51.204;-4.130;2023-03-15T04:26:03;6.10;99.90
49765;DHT22;35657;51.204;-4.130;2023-03-15T04:28:32;6.10;99.90
49765;DHT22;35657;51.204;-4.130;2023-03-15T04:30:58;6.10;99.90
49765;DHT22;35657;51.204;-4.130;2023-03-15T04:33:24;6.10;99.90
49765;DHT22;35657;51.204;-4.130;2023-03-15T04:35:50;6.10;99.90
49765;DHT22;35657;51.204;-4.130;2023-03-15T04:38:19;6.10;99.90
49765;DHT22;35657;51.204;-4.130;2023-03-15T04:40:52;6.20;99.90
49765;DHT22;35657;51.204;-4.130;2023-03-15T04:43:19;6.20;99.90
49765;DHT22;35657;51.204;-4.130;2023-03-15T04:45:45;6.20;99.90
49765;DHT22;35657;51.204;-4.130;2023-03-15T04:48:11;6.20;99.90
49765;DHT22;35657;51.204;-4.130;2023-03-15T04:50:36;6.30;99.90
49765;DHT22;35657;51.204;-4.130;2023-03-15T04:53:02;6.30;99.90
49765;DHT22;35657;51.204;-4.130;2023-03-15T04:55:28;6.30;99.90
49765;DHT22;35657;51.204;-4.130;2023-03-15T04:57:54;6.40;99.90
49765;DHT22;35657;51.204;-4.130;2023-03-15T05:00:19;6.40;99.90
49765;DHT22;35657;51.204;-4.130;2023-03-15T05:02:46;6.40;99.90
49765;DHT22;35657;51.204;-4.130;2023-03-15T05:05:20;6.30;99.90
49765;DHT22;35657;51.204;-4.130;2023-03-15T05:07:46;6.30;99.90
49765;DHT22;35657;51.204;-4.130;2023-03-15T05:10:11;6.30;99.90
49765;DHT22;35657;51.204;-4.130;2023-03-15T05:12:37;6.40;99.90
49765;DHT22;35657;51.204;-4.130;2023-03-15T05:15:03;6.40;99.90
49765;DHT22;35657;51.204;-4.130;2023-03-15T05:17:29;6.50;99.90
49765;DHT22;35657;51.204;-4.130;2023-03-15T05:19:55;6.40;99.90
49765;DHT22;35657;51.204;-4.130;2023-03-15T05:22:20;6.50;99.90
49765;DHT22;35657;51.204;-4.130;2023-03-15T05:24:50;6.50;99.90
49765;DHT22;35657;51.204;-4.130;2023-03-15T05:27:18;6.50;99.90
49765;DHT22;35657;51.204;-4.130;2023-03-15T05:29:44;6.60;99.90
49765;DHT22;35657;51.204;-4.130;2023-03-15T05:32:10;6.60;99.90
49765;DHT22;35657;51.204;-4.130;2023-03-15T05:34:36;6.60;99.90
49765;DHT22;35657;51.204;-4.130;2023-03-15T05:37:01;6.60;99.90
49765;DHT22;35657;51.204;-4.130;2023-03-15T05:39:27;6.60;99.90
49765;DHT22;35657;51.204;-4.130;2023-03-15T05:41:54;6.60;99.90
49765;DHT22;35657;51.204;-4.130;2023-03-15T05:44:19;6.60;99.90
49765;DHT22;35657;51.204;-4.130;2023-03-15T05:46:45;6.60;99.90
49765;DHT22;35657;51.204;-4.130;2023-03-15T05:49:11;6.60;99.90
49765;DHT22;35657;51.204;-4.130;2023-03-15T05:51:36;6.50;99.90
49765;DHT22;35657;51.204;-4.130;2023-03-15T05:54:02;6.50;99.90
49765;DHT22;35657;51.204;-4.130;2023-03-15T05:56:28;6.50;99.90
49765;DHT22;35657;51.204;-4.130;2023-03-15T05:58:53;6.50;99.90
49765;DHT22;35657;51.204;-4.130;2023-03-15T06:01:19;6.60;99.90
49765;DHT22;35657;51.204;-4.130;2023-03-15T06:03:45;6.60;99.90
49765;DHT22;35657;51.204;-4.130;2023-03-15T06:06:10;6.60;99.90
49765;DHT22;35657;51.204;-4.130;2023-03-15T06:08:36;6.60;99.90
49765;DHT22;35657;51.204;-4.130;2023-03-15T06:11:02;6.60;99.90
49765;DHT22;35657;51.204;-4.130;2023-03-15T06:13:27;6.60;99.90
49765;DHT22;35657;51.204;-4.130;2023-03-15T06:15:53;6.60;99.90
49765;DHT22;35657;51.204;-4.130;2023-03-15T06:18:19;6.60;99.90
49765;DHT22;35657;51.204;-4.130;2023-03-15T06:20:45;6.50;99.90
49765;DHT22;35657;51.204;-4.130;2023-03-15T06:23:11;6.60;99.90
49765;DHT22;35657;51.204;-4.130;2023-03-15T06:25:37;6.70;99.90
49765;DHT22;35657;51.204;-4.130;2023-03-15T06:28:03;6.60;99.90
49765;DHT22;35657;51.204;-4.130;2023-03-15T06:30:28;6.60;99.90
49765;DHT22;35657;51.204;-4.130;2023-03-15T06:32:54;6.60;99.90
49765;DHT22;35657;51.204;-4.130;2023-03-15T06:35:21;6.60;99.90
49765;DHT22;35657;51.204;-4.130;2023-03-15T06:37:46;6.60;99.90
49765;DHT22;35657;51.204;-4.130;2023-03-15T06:40:12;6.60;99.90
49765;DHT22;35657;51.204;-4.130;2023-03-15T06:42:39;6.70;99.90
49765;DHT22;35657;51.204;-4.130;2023-03-15T06:45:06;6.70;99.90
49765;DHT22;35657;51.204;-4.130;2023-03-15T06:47:33;6.70;99.90
49765;DHT22;35657;51.204;-4.130;2023-03-15T06:49:59;6.70;99.90
49765;DHT22;35657;51.204;-4.130;2023-03-15T06:52:24;6.70;99.90
49765;DHT22;35657;51.204;-4.130;2023-03-15T06:54:50;6.70;99.90
49765;DHT22;35657;51.204;-4.130;2023-03-15T06:57:16;6.70;99.90
49765;DHT22;35657;51.204;-4.130;2023-03-15T06:59:41;6.70;99.90
49765;DHT22;35657;51.204;-4.130;2023-03-15T07:02:15;6.70;99.90
49765;DHT22;35657;51.204;-4.130;2023-03-15T07:04:41;6.60;99.90
49765;DHT22;35657;51.204;-4.130;2023-03-15T07:07:11;6.60;99.90
49765;DHT22;35657;51.204;-4.130;2023-03-15T07:09:37;6.70;99.90
49765;DHT22;35657;51.204;-4.130;2023-03-15T07:12:04;6.70;99.90
49765;DHT22;35657;51.204;-4.130;2023-03-15T07:14:30;6.60;99.90
49765;DHT22;35657;51.204;-4.130;2023-03-15T07:16:55;6.70;99.90
49765;DHT22;35657;51.204;-4.130;2023-03-15T07:19:21;6.70;99.90
49765;DHT22;35657;51.204;-4.130;2023-03-15T07:21:47;6.70;99.90
49765;DHT22;35657;51.204;-4.130;2023-03-15T07:24:12;6.70;99.90
49765;DHT22;35657;51.204;-4.130;2023-03-15T07:26:38;6.70;99.90
49765;DHT22;35657;51.204;-4.130;2023-03-15T07:29:04;6.70;99.90
49765;DHT22;35657;51.204;-4.130;2023-03-15T07:31:29;6.80;99.90
49765;DHT22;35657;51.204;-4.130;2023-03-15T07:33:55;6.80;99.90
49765;DHT22;35657;51.204;-4.130;2023-03-15T07:36:21;6.80;99.90
49765;DHT22;35657;51.204;-4.130;2023-03-15T07:38:47;6.80;99.90
49765;DHT22;35657;51.204;-4.130;2023-03-15T07:41:12;6.80;99.90
49765;DHT22;35657;51.204;-4.130;2023-03-15T07:43:38;6.80;99.90
49765;DHT22;35657;51.204;-4.130;2023-03-15T07:46:04;6.80;99.90
49765;DHT22;35657;51.204;-4.130;2023-03-15T07:48:31;6.80;99.90
49765;DHT22;35657;51.204;-4.130;2023-03-15T07:50:56;6.80;99.90
49765;DHT22;35657;51.204;-4.130;2023-03-15T07:53:22;6.80;99.90
49765;DHT22;35657;51.204;-4.130;2023-03-15T07:55:48;6.80;99.90
49765;DHT22;35657;51.204;-4.130;2023-03-15T07:58:14;6.90;99.90
49765;DHT22;35657;51.204;-4.130;2023-03-15T08:00:40;6.90;99.90
49765;DHT22;35657;51.204;-4.130;2023-03-15T08:03:06;6.90;99.90
49765;DHT22;35657;51.204;-4.130;2023-03-15T08:05:33;6.90;99.90
49765;DHT22;35657;51.204;-4.130;2023-03-15T08:08:00;7.00;99.90
49765;DHT22;35657;51.204;-4.130;2023-03-15T08:10:26;7.00;99.90
49765;DHT22;35657;51.204;-4.130;2023-03-15T08:12:51;7.00;99.90
49765;DHT22;35657;51.204;-4.130;2023-03-15T08:15:18;7.00;99.90
49765;DHT22;35657;51.204;-4.130;2023-03-15T08:17:46;7.00;99.90
49765;DHT22;35657;51.204;-4.130;2023-03-15T08:20:13;7.00;99.90
49765;DHT22;35657;51.204;-4.130;2023-03-15T08:22:42;7.00;99.90
49765;DHT22;35657;51.204;-4.130;2023-03-15T08:25:12;7.00;99.90
49765;DHT22;35657;51.204;-4.130;2023-03-15T08:27:39;7.00;99.90
49765;DHT22;35657;51.204;-4.130;2023-03-15T08:30:07;7.00;99.90
49765;DHT22;35657;51.204;-4.130;2023-03-15T08:32:33;7.00;99.90
49765;DHT22;35657;51.204;-4.130;2023-03-15T08:34:59;7.10;99.90
49765;DHT22;35657;51.204;-4.130;2023-03-15T08:37:25;7.10;99.90
49765;DHT22;35657;51.204;-4.130;2023-03-15T08:39:50;7.10;99.90
49765;DHT22;35657;51.204;-4.130;2023-03-15T08:42:26;7.20;99.90
49765;DHT22;35657;51.204;-4.130;2023-03-15T08:44:51;7.20;99.90
49765;DHT22;35657;51.204;-4.130;2023-03-15T08:47:17;7.20;99.90
49765;DHT22;35657;51.204;-4.130;2023-03-15T08:49:43;7.30;99.90
49765;DHT22;35657;51.204;-4.130;2023-03-15T08:52:09;7.30;99.90
49765;DHT22;35657;51.204;-4.130;2023-03-15T08:54:35;7.40;99.90
49765;DHT22;35657;51.204;-4.130;2023-03-15T08:57:01;7.40;99.90
49765;DHT22;35657;51.204;-4.130;2023-03-15T08:59:26;7.40;99.90
49765;DHT22;35657;51.204;-4.130;2023-03-15T09:01:52;7.40;99.90
49765;DHT22;35657;51.204;-4.130;2023-03-15T09:04:18;7.40;99.90
49765;DHT22;35657;51.204;-4.130;2023-03-15T09:06:44;7.30;99.90
49765;DHT22;35657;51.204;-4.130;2023-03-15T09:09:09;7.40;99.90
49765;DHT22;35657;51.204;-4.130;2023-03-15T09:11:35;7.40;99.90
49765;DHT22;35657;51.204;-4.130;2023-03-15T09:14:01;7.40;99.90
49765;DHT22;35657;51.204;-4.130;2023-03-15T09:16:27;7.40;99.90
49765;DHT22;35657;51.204;-4.130;2023-03-15T09:18:53;7.40;99.90
49765;DHT22;35657;51.204;-4.130;2023-03-15T09:21:19;7.50;99.90
49765;DHT22;35657;51.204;-4.130;2023-03-15T09:23:44;7.50;99.90
49765;DHT22;35657;51.204;-4.130;2023-03-15T09:26:11;7.50;99.90
49765;DHT22;35657;51.204;-4.130;2023-03-15T09:28:36;7.50;99.90
49765;DHT22;35657;51.204;-4.130;2023-03-15T09:31:05;7.50;99.90
49765;DHT22;35657;51.204;-4.130;2023-03-15T09:33:31;7.60;99.90
49765;DHT22;35657;51.204;-4.130;2023-03-15T09:35:57;7.60;99.90
49765;DHT22;35657;51.204;-4.130;2023-03-15T09:38:23;7.60;99.90
49765;DHT22;35657;51.204;-4.130;2023-03-15T09:40:50;7.70;99.90
49765;DHT22;35657;51.204;-4.130;2023-03-15T09:46:31;7.80;99.90
49765;DHT22;35657;51.204;-4.130;2023-03-15T09:52:00;7.90;99.90
49765;DHT22;35657;51.204;-4.130;2023-03-15T09:54:40;7.90;99.90
49765;DHT22;35657;51.204;-4.130;2023-03-15T09:57:16;8.00;99.90
49765;DHT22;35657;51.204;-4.130;2023-03-15T09:59:47;8.00;99.90
49765;DHT22;35657;51.204;-4.130;2023-03-15T10:02:22;8.00;99.90
49765;DHT22;35657;51.204;-4.130;2023-03-15T10:04:52;8.10;99.90
49765;DHT22;35657;51.204;-4.130;2023-03-15T10:07:20;8.10;99.90
49765;DHT22;35657;51.204;-4.130;2023-03-15T10:09:46;8.20;99.90
49765;DHT22;35657;51.204;-4.130;2023-03-15T10:12:27;8.30;99.90
49765;DHT22;35657;51.204;-4.130;2023-03-15T10:20:29;8.60;99.90
49765;DHT22;35657;51.204;-4.130;2023-03-15T10:23:06;8.60;99.90
49765;DHT22;35657;51.204;-4.130;2023-03-15T10:25:35;8.70;99.90
49765;DHT22;35657;51.204;-4.130;2023-03-15T10:28:11;8.80;99.90
49765;DHT22;35657;51.204;-4.130;2023-03-15T10:30:41;8.70;99.90
49765;DHT22;35657;51.204;-4.130;2023-03-15T10:33:33;8.80;99.90
49765;DHT22;35657;51.204;-4.130;2023-03-15T10:36:01;8.70;99.90
49765;DHT22;35657;51.204;-4.130;2023-03-15T10:38:28;8.70;99.90
49765;DHT22;35657;51.204;-4.130;2023-03-15T10:40:56;8.60;99.90
49765;DHT22;35657;51.204;-4.130;2023-03-15T10:43:29;8.60;99.90
49765;DHT22;35657;51.204;-4.130;2023-03-15T10:46:11;8.60;99.90
49765;DHT22;35657;51.204;-4.130;2023-03-15T10:48:39;8.60;99.90
49765;DHT22;35657;51.204;-4.130;2023-03-15T10:51:36;8.60;99.90
49765;DHT22;35657;51.204;-4.130;2023-03-15T10:54:20;8.60;99.90
49765;DHT22;35657;51.204;-4.130;2023-03-15T10:59:26;8.70;99.90
49765;DHT22;35657;51.204;-4.130;2023-03-15T11:01:53;8.70;
49765;DHT22;35657;51.204;-4.130;2023-03-15T11:04:32;8.60;99.90
49765;DHT22;35657;51.204;-4.130;2023-03-15T11:07:02;8.70;99.90
49765;DHT22;35657;51.204;-4.130;2023-03-15T11:09:43;8.70;99.90
49765;DHT22;35657;51.204;-4.130;2023-03-15T11:12:15;8.70;99.90
49765;DHT22;35657;51.204;-4.130;2023-03-15T11:14:48;8.80;99.90
49765;DHT22;35657;51.204;-4.130;2023-03-15T11:17:26;8.80;99.90
49765;DHT22;35657;51.204;-4.130;2023-03-15T11:22:44;8.80;99.90
49765;DHT22;35657;51.204;-4.130;2023-03-15T11:25:16;8.90;99.90
49765;DHT22;35657;51.204;-4.130;2023-03-15T11:27:43;8.90;99.90
49765;DHT22;35657;51.204;-4.130;2023-03-15T11:30:13;9.00;99.90
49765;DHT22;35657;51.204;-4.130;2023-03-15T11:32:40;8.90;99.90
49765;DHT22;35657;51.204;-4.130;2023-03-15T11:35:13;9.00;99.90
49765;DHT22;35657;51.204;-4.130;2023-03-15T11:38:13;9.00;99.90
49765;DHT22;35657;51.204;-4.130;2023-03-15T11:40:47;9.50;99.90
49765;DHT22;35657;51.204;-4.130;2023-03-15T11:43:52;9.10;99.90
49765;DHT22;35657;51.204;-4.130;2023-03-15T11:46:41;9.20;99.90
49765;DHT22;35657;51.204;-4.130;2023-03-15T11:51:49;9.40;99.90
49765;DHT22;35657;51.204;-4.130;2023-03-15T11:54:16;9.40;99.90
49765;DHT22;35657;51.204;-4.130;2023-03-15T11:59:11;9.50;99.90
49765;DHT22;35657;51.204;-4.130;2023-03-15T12:01:44;9.50;99.90
49765;DHT22;35657;51.204;-4.130;2023-03-15T12:07:04;9.40;99.90
49765;DHT22;35657;51.204;-4.130;2023-03-15T12:12:33;9.30;99.90
49765;DHT22;35657;51.204;-4.130;2023-03-15T12:17:58;9.30;99.90
49765;DHT22;35657;51.204;-4.130;2023-03-15T12:25:55;9.20;99.90
49765;DHT22;35657;51.204;-4.130;2023-03-15T12:28:48;9.30;99.90
49765;DHT22;35657;51.204;-4.130;2023-03-15T12:31:15;9.20;99.90
49765;DHT22;35657;51.204;-4.130;2023-03-15T12:33:50;9.20;99.90
49765;DHT22;35657;51.204;-4.130;2023-03-15T12:36:39;9.20;99.90
49765;DHT22;35657;51.204;-4.130;2023-03-15T12:41:42;9.20;99.90
49765;DHT22;35657;51.204;-4.130;2023-03-15T12:44:42;9.20;99.90
49765;DHT22;35657;51.204;-4.130;2023-03-15T12:47:09;9.10;99.90
49765;DHT22;35657;51.204;-4.130;2023-03-15T12:49:38;9.10;99.90
49765;DHT22;35657;51.204;-4.130;2023-03-15T12:57:20;9.10;99.90
49765;DHT22;35657;51.204;-4.130;2023-03-15T13:00:16;9.10;99.90
49765;DHT22;35657;51.204;-4.130;2023-03-15T13:03:01;9.10;99.90
49765;DHT22;35657;51.204;-4.130;2023-03-15T13:08:40;9.10;99.90
49765;DHT22;35657;51.204;-4.130;2023-03-15T13:13:55;9.10;99.90
49765;DHT22;35657;51.204;-4.130;2023-03-15T13:19:33;9.20;99.90
49765;DHT22;35657;51.204;-4.130;2023-03-15T13:25:02;9.30;99.90
49765;DHT22;35657;51.204;-4.130;2023-03-15T13:30:33;9.40;99.90
49765;DHT22;35657;51.204;-4.130;2023-03-15T13:33:08;9.40;99.90
49765;DHT22;35657;51.204;-4.130;2023-03-15T13:35:47;9.30;99.90
49765;DHT22;35657;51.204;-4.130;2023-03-15T13:38:42;9.30;99.90
49765;DHT22;35657;51.204;-4.130;2023-03-15T13:43:43;9.30;99.90
49765;DHT22;35657;51.204;-4.130;2023-03-15T13:46:08;9.20;99.90
49765;DHT22;35657;51.204;-4.130;2023-03-15T13:48:36;9.30;99.90
49765;DHT22;35657;51.204;-4.130;2023-03-15T13:53:33;9.30;99.90
49765;DHT22;35657;51.204;-4.130;2023-03-15T13:56:00;9.30;99.90
49765;DHT22;35657;51.204;-4.130;2023-03-15T13:58:27;9.30;99.90
49765;DHT22;35657;51.204;-4.130;2023-03-15T14:01:00;9.30;99.90
49765;DHT22;35657;51.204;-4.130;2023-03-15T14:03:29;9.40;99.90
49765;DHT22;35657;51.204;-4.130;2023-03-15T14:05:57;9.50;99.90
49765;DHT22;35657;51.204;-4.130;2023-03-15T14:08:29;9.60;99.90
49765;DHT22;35657;51.204;-4.130;2023-03-15T14:11:04;9.60;99.90
49765;DHT22;35657;51.204;-4.130;2023-03-15T14:13:32;9.70;99.90
49765;DHT22;35657;51.204;-4.130;2023-03-15T14:18:44;9.80;99.90
49765;DHT22;35657;51.204;-4.130;2023-03-15T14:21:15;9.70;99.90
49765;DHT22;35657;51.204;-4.130;2023-03-15T14:23:44;9.60;99.90
49765;DHT22;35657;51.204;-4.130;2023-03-15T14:28:55;9.70;99.90
49765;DHT22;35657;51.204;-4.130;2023-03-15T14:31:26;9.80;99.90
49765;DHT22;35657;51.204;-4.130;2023-03-15T14:34:06;9.80;99.90
49765;DHT22;35657;51.204;-4.130;2023-03-15T14:36:40;9.90;99.90
49765;DHT22;35657;51.204;-4.130;2023-03-15T14:39:38;9.90;99.90
49765;DHT22;35657;51.204;-4.130;2023-03-15T14:42:03;9.80;99.90
49765;DHT22;35657;51.204;-4.130;2023-03-15T14:44:29;9.70;99.90
49765;DHT22;35657;51.204;-4.130;2023-03-15T14:46:55;9.70;99.90
49765;DHT22;35657;51.204;-4.130;2023-03-15T14:49:26;9.70;99.90
49765;DHT22;35657;51.204;-4.130;2023-03-15T14:52:00;9.60;99.90
49765;DHT22;35657;51.204;-4.130;2023-03-15T14:54:28;9.60;99.90
49765;DHT22;35657;51.204;-4.130;2023-03-15T14:56:55;9.60;99.90
49765;DHT22;35657;51.204;-4.130;2023-03-15T14:59:20;9.60;99.90
49765;DHT22;35657;51.204;-4.130;2023-03-15T15:01:53;9.60;99.90
49765;DHT22;35657;51.204;-4.130;2023-03-15T15:04:20;9.60;99.90
49765;DHT22;35657;51.204;-4.130;2023-03-15T15:06:47;9.60;99.90
49765;DHT22;35657;51.204;-4.130;2023-03-15T15:09:26;9.60;99.90
49765;DHT22;35657;51.204;-4.130;2023-03-15T15:11:53;9.50;99.90
49765;DHT22;35657;51.204;-4.130;2023-03-15T15:14:19;9.50;99.90
49765;DHT22;35657;51.204;-4.130;2023-03-15T15:16:46;9.50;99.90
49765;DHT22;35657;51.204;-4.130;2023-03-15T15:19:13;9.50;99.90
49765;DHT22;35657;51.204;-4.130;2023-03-15T15:21:41;9.50;99.90
49765;DHT22;35657;51.204;-4.130;2023-03-15T15:24:15;9.50;99.90
49765;DHT22;35657;51.204;-4.130;2023-03-15T15:26:43;9.50;99.90
49765;DHT22;35657;51.204;-4.130;2023-03-15T15:29:13;9.50;99.90
49765;DHT22;35657;51.204;-4.130;2023-03-15T15:31:40;9.60;99.90
49765;DHT22;35657;51.204;-4.130;2023-03-15T15:34:06;9.60;99.90
49765;DHT22;35657;51.204;-4.130;2023-03-15T15:36:35;9.60;99.90
49765;DHT22;35657;51.204;-4.130;2023-03-15T15:39:03;9.60;99.90
49765;DHT22;35657;51.204;-4.130;2023-03-15T15:41:30;9.60;99.90
49765;DHT22;35657;51.204;-4.130;2023-03-15T15:44:00;9.70;99.90
49765;DHT22;35657;51.204;-4.130;2023-03-15T15:46:26;9.70;99.90
49765;DHT22;35657;51.204;-4.130;2023-03-15T15:48:52;9.80;99.90
49765;DHT22;35657;51.204;-4.130;2023-03-15T15:51:29;9.90;99.90
49765;DHT22;35657;51.204;-4.130;2023-03-15T15:53:58;9.90;99.90
49765;DHT22;35657;51.204;-4.130;2023-03-15T15:56:36;9.80;99.90
49765;DHT22;35657;51.204;-4.130;2023-03-15T15:59:08;9.90;99.90
49765;DHT22;35657;51.204;-4.130;2023-03-15T16:01:34;9.90;99.90
49765;DHT22;35657;51.204;-4.130;2023-03-15T16:04:00;9.90;99.90
49765;DHT22;35657;51.204;-4.130;2023-03-15T16:06:27;9.90;99.90
49765;DHT22;35657;51.204;-4.130;2023-03-15T16:08:54;9.80;99.90
49765;DHT22;35657;51.204;-4.130;2023-03-15T16:11:20;9.70;99.90
49765;DHT22;35657;51.204;-4.130;2023-03-15T16:13:47;9.60;99.90
49765;DHT22;35657;51.204;-4.130;2023-03-15T16:16:15;9.60;99.90
49765;DHT22;35657;51.204;-4.130;2023-03-15T16:18:42;9.60;99.90
49765;DHT22;35657;51.204;-4.130;2023-03-15T16:21:37;9.50;99.90
49765;DHT22;35657;51.204;-4.130;2023-03-15T16:24:27;9.50;99.90
49765;DHT22;35657;51.204;-4.130;2023-03-15T16:27:04;9.50;99.90
49765;DHT22;35657;51.204;-4.130;2023-03-15T16:29:44;9.50;99.90
49765;DHT22;35657;51.204;-4.130;2023-03-15T16:32:23;9.50;99.90
49765;DHT22;35657;51.204;-4.130;2023-03-15T16:34:50;9.50;99.90
49765;DHT22;35657;51.204;-4.130;2023-03-15T16:37:28;9.50;99.90
49765;DHT22;35657;51.204;-4.130;2023-03-15T16:39:55;9.50;99.90
49765;DHT22;35657;51.204;-4.130;2023-03-15T16:42:24;9.50;99.90
49765;DHT22;35657;51.204;-4.130;2023-03-15T16:44:51;9.40;99.90
49765;DHT22;35657;51.204;-4.130;2023-03-15T16:47:17;9.40;99.90
49765;DHT22;35657;51.204;-4.130;2023-03-15T16:49:43;9.50;99.90
49765;DHT22;35657;51.204;-4.130;2023-03-15T16:52:11;9.40;99.90
49765;DHT22;35657;51.204;-4.130;2023-03-15T16:54:38;9.40;99.90